createdAt,value
2023-01-21T00:00:27.520Z,79.23
2023-01-21T00:03:16.743Z,79.26
2023-01-21T00:05:46.386Z,79.28
2023-01-21T00:08:17.008Z,78.84
2023-01-21T00:10:46.516Z,78.11
2023-01-21T00:13:15.807Z,78.98
2023-01-21T00:15:45.498Z,77.18
2023-01-21T00:18:14.874Z,78.43
2023-01-21T00:20:46.212Z,78.96
2023-01-21T00:23:16.774Z,79.40
2023-01-21T00:25:46.440Z,79.09
2023-01-21T00:28:15.735Z,79.11
2023-01-21T00:30:45.411Z,79.41
2023-01-21T00:33:14.598Z,79.10
2023-01-21T00:35:44.038Z,80.00
2023-01-21T00:38:13.347Z,80.28
2023-01-21T00:40:44.152Z,80.57
2023-01-21T00:43:13.426Z,80.96
2023-01-21T00:45:43.477Z,80.80
2023-01-21T00:48:12.673Z,81.36
2023-01-21T00:50:42.717Z,81.35
2023-01-21T00:53:12.127Z,82.50
2023-01-21T00:55:43.045Z,82.26
2023-01-21T00:58:12.437Z,82.15
2023-01-21T01:00:42.126Z,82.42
2023-01-21T01:03:11.401Z,82.00
2023-01-21T01:05:40.819Z,81.84
2023-01-21T01:08:10.000Z,82.15
2023-01-21T01:10:39.608Z,81.98
2023-01-21T01:13:10.089Z,81.43
2023-01-21T01:15:39.503Z,82.03
2023-01-21T01:18:08.778Z,82.25
2023-01-21T01:20:38.238Z,82.18
2023-01-21T01:23:07.426Z,81.85
2023-01-21T01:25:38.012Z,82.09
2023-01-21T01:28:07.455Z,82.03
2023-01-21T01:30:38.732Z,82.23
2023-01-21T01:33:08.077Z,81.85
2023-01-21T01:35:37.640Z,82.05
2023-01-21T01:38:10.081Z,81.39
2023-01-21T01:40:40.695Z,81.40
2023-01-21T01:43:17.585Z,81.32
2023-01-21T01:45:50.343Z,81.55
2023-01-21T01:48:23.822Z,81.72
2023-01-21T01:50:53.746Z,82.06
2023-01-21T01:53:23.317Z,82.17
2023-01-21T01:55:52.977Z,82.10
2023-01-21T01:58:23.822Z,81.98
2023-01-21T02:00:54.654Z,83.00
2023-01-21T02:03:42.017Z,83.47
2023-01-21T02:06:12.516Z,82.77
2023-01-21T02:08:42.430Z,82.60
2023-01-21T02:11:16.223Z,82.46
2023-01-21T02:13:48.437Z,82.64
2023-01-21T02:16:35.287Z,82.14
2023-01-21T02:19:20.309Z,81.89
2023-01-21T02:22:08.986Z,82.49
2023-01-21T02:25:26.046Z,81.96
2023-01-21T02:28:08.476Z,81.17
2023-01-21T02:31:10.420Z,80.01
2023-01-21T02:34:00.876Z,79.80
2023-01-21T02:36:43.549Z,79.05
2023-01-21T02:39:23.114Z,80.16
2023-01-21T02:42:04.546Z,79.71
2023-01-21T02:44:40.008Z,79.67
2023-01-21T02:47:20.734Z,79.18
2023-01-21T02:49:57.418Z,78.71
2023-01-21T02:52:27.735Z,78.22
2023-01-21T02:54:58.848Z,78.70
2023-01-21T02:57:41.003Z,77.35
2023-01-21T03:00:14.850Z,77.23
2023-01-21T03:03:15.378Z,77.00
2023-01-21T03:06:18.402Z,76.77
2023-01-21T03:08:55.523Z,77.36
2023-01-21T03:11:26.047Z,76.74
2023-01-21T03:14:18.808Z,76.61
2023-01-21T03:16:59.289Z,76.61
2023-01-21T03:19:36.180Z,76.64
2023-01-21T03:22:10.393Z,75.33
2023-01-21T03:24:43.866Z,75.79
2023-01-21T03:27:17.776Z,75.19
2023-01-21T03:29:48.909Z,75.91
2023-01-21T03:33:45.853Z,75.08
2023-01-21T03:36:24.408Z,74.78
2023-01-21T03:38:57.296Z,73.92
2023-01-21T03:41:34.079Z,74.17
2023-01-21T03:44:03.859Z,74.34
2023-01-21T03:46:39.322Z,73.80
2023-01-21T03:49:14.343Z,74.01
2023-01-21T03:51:48.737Z,73.74
2023-01-21T03:54:18.279Z,72.81
2023-01-21T03:56:48.918Z,73.29
2023-01-21T03:59:18.427Z,72.21
2023-01-21T04:01:47.715Z,72.20
2023-01-21T04:04:17.236Z,71.41
2023-01-21T04:06:46.451Z,71.73
2023-01-21T04:09:16.178Z,70.91
2023-01-21T04:11:45.427Z,71.28
2023-01-21T04:14:16.317Z,70.75
2023-01-21T04:16:45.687Z,71.47
2023-01-21T04:19:15.279Z,70.20
2023-01-21T04:21:44.615Z,69.15
2023-01-21T04:24:14.307Z,68.73
2023-01-21T04:26:43.577Z,68.27
2023-01-21T04:29:13.054Z,68.16
2023-01-21T04:31:43.939Z,67.91
2023-01-21T04:34:13.559Z,68.82
2023-01-21T04:36:42.810Z,69.79
2023-01-21T04:39:12.521Z,69.49
2023-01-21T04:41:41.665Z,69.46
2023-01-21T04:44:11.332Z,68.30
2023-01-21T04:46:40.531Z,68.45
2023-01-21T04:49:11.580Z,67.74
2023-01-21T04:51:40.874Z,67.72
2023-01-21T04:54:12.045Z,69.22
2023-01-21T04:56:41.427Z,69.17
2023-01-21T04:59:11.677Z,68.90
2023-01-21T05:01:41.029Z,68.44
2023-01-21T05:04:11.988Z,68.96
2023-01-21T05:06:41.119Z,68.46
2023-01-21T05:09:11.426Z,68.82
2023-01-21T05:11:40.738Z,68.91
2023-01-21T05:14:10.202Z,68.61
2023-01-21T05:16:39.521Z,67.90
2023-01-21T05:19:10.663Z,67.22
2023-01-21T05:21:39.942Z,67.23
2023-01-21T05:24:09.772Z,66.81
2023-01-21T05:26:39.064Z,67.20
2023-01-21T05:29:08.592Z,67.25
2023-01-21T05:31:38.173Z,67.68
2023-01-21T05:34:07.818Z,66.95
2023-01-21T05:36:38.733Z,67.62
2023-01-21T05:39:08.281Z,67.51
2023-01-21T05:41:37.491Z,66.75
2023-01-21T05:44:07.402Z,66.31
2023-01-21T05:46:37.053Z,66.88
2023-01-21T05:49:06.655Z,67.97
2023-01-21T05:51:37.222Z,67.34
2023-01-21T05:54:06.908Z,67.14
2023-01-21T05:56:36.315Z,66.64
2023-01-21T05:59:06.350Z,66.64
2023-01-21T06:01:35.617Z,66.49
2023-01-21T06:04:05.257Z,66.85
2023-01-21T06:06:34.434Z,66.59
2023-01-21T06:09:05.605Z,66.94
2023-01-21T06:11:34.807Z,66.44
2023-01-21T06:14:04.335Z,66.92
2023-01-21T06:16:33.785Z,66.75
2023-01-21T06:19:03.294Z,67.13
2023-01-21T06:21:32.682Z,66.71
2023-01-21T06:24:02.632Z,67.07
2023-01-21T06:26:34.163Z,67.18
2023-01-21T06:29:03.683Z,67.13
2023-01-21T06:31:33.080Z,66.90
2023-01-21T06:34:02.590Z,66.54
2023-01-21T06:36:31.774Z,66.59
2023-01-21T06:39:01.387Z,66.56
2023-01-21T06:41:30.672Z,67.11
2023-01-21T06:44:01.618Z,67.42
2023-01-21T06:46:30.883Z,67.24
2023-01-21T06:49:00.557Z,67.29
2023-01-21T06:51:29.768Z,67.24
2023-01-21T06:53:59.301Z,67.37
2023-01-21T06:56:28.474Z,67.45
2023-01-21T06:58:58.144Z,67.57
2023-01-21T07:01:30.968Z,68.15
2023-01-21T07:04:03.494Z,68.35
2023-01-21T07:06:32.666Z,67.87
2023-01-21T07:09:03.813Z,68.61
2023-01-21T07:11:33.690Z,68.01
2023-01-21T07:14:03.348Z,68.78
2023-01-21T07:16:33.998Z,68.21
2023-01-21T07:19:03.569Z,68.66
2023-01-21T07:21:32.868Z,68.55
2023-01-21T07:24:02.459Z,68.60
2023-01-21T07:26:32.863Z,68.32
2023-01-21T07:29:02.391Z,68.28
2023-01-21T07:31:33.078Z,68.56
2023-01-21T07:34:02.988Z,68.74
2023-01-21T07:36:32.286Z,68.90
2023-01-21T07:39:02.018Z,69.39
2023-01-21T07:41:31.328Z,68.66
2023-01-21T07:44:00.940Z,68.93
2023-01-21T07:46:31.950Z,68.86
2023-01-21T07:49:02.972Z,68.30
2023-01-21T07:51:32.320Z,69.26
2023-01-21T07:54:01.892Z,68.60
2023-01-21T07:56:31.067Z,67.61
2023-01-21T07:59:00.728Z,67.61
2023-01-21T08:01:31.466Z,68.18
2023-01-21T08:04:03.390Z,68.68
2023-01-21T08:06:32.540Z,67.07
2023-01-21T08:09:02.142Z,67.46
2023-01-21T08:11:31.317Z,67.59
2023-01-21T08:14:00.831Z,67.25
2023-01-21T08:16:30.151Z,67.72
2023-01-21T08:19:01.127Z,67.88
2023-01-21T08:21:30.452Z,67.38
2023-01-21T08:24:01.396Z,68.34
2023-01-21T08:26:30.611Z,67.67
2023-01-21T08:29:00.237Z,66.93
2023-01-21T08:31:29.638Z,66.95
2023-01-21T08:34:01.651Z,67.47
2023-01-21T08:36:30.856Z,67.81
2023-01-21T08:39:01.969Z,67.95
2023-01-21T08:41:31.207Z,68.44
2023-01-21T08:44:00.822Z,67.97
2023-01-21T08:46:30.116Z,67.94
2023-01-21T08:49:01.406Z,68.45
2023-01-21T08:51:30.570Z,68.47
2023-01-21T08:54:00.094Z,67.93
2023-01-21T08:56:29.364Z,68.03
2023-01-21T08:58:59.332Z,67.94
2023-01-21T09:01:29.299Z,68.42
2023-01-21T09:03:59.654Z,68.67
2023-01-21T09:06:31.637Z,68.66
2023-01-21T09:09:01.676Z,68.24
2023-01-21T09:11:31.686Z,69.15
2023-01-21T09:14:03.597Z,68.51
2023-01-21T09:16:33.361Z,69.73
2023-01-21T09:19:03.566Z,70.14
2023-01-21T09:21:35.936Z,69.53
2023-01-21T09:24:06.016Z,69.00
2023-01-21T09:26:35.287Z,69.83
2023-01-21T09:29:04.823Z,69.98
2023-01-21T09:31:34.245Z,70.26
2023-01-21T09:34:05.468Z,70.06
2023-01-21T09:36:36.926Z,69.18
2023-01-21T09:39:07.689Z,70.14
2023-01-21T09:41:39.392Z,70.42
2023-01-21T09:44:17.649Z,69.38
2023-01-21T09:46:53.080Z,70.23
2023-01-21T09:49:24.234Z,70.63
2023-01-21T09:52:03.318Z,70.36
2023-01-21T09:54:35.126Z,70.52
2023-01-21T09:57:44.822Z,69.81
2023-01-21T10:00:34.238Z,70.64
2023-01-21T10:03:25.639Z,70.83
2023-01-21T10:06:31.977Z,69.77
2023-01-21T10:09:22.492Z,69.67
2023-01-21T10:12:12.386Z,70.46
2023-01-21T10:15:08.289Z,69.92
2023-01-21T10:17:52.017Z,70.08
2023-01-21T10:20:27.071Z,70.00
2023-01-21T10:23:00.519Z,70.86
2023-01-21T10:25:33.335Z,69.67
2023-01-21T10:28:11.765Z,70.24
2023-01-21T10:30:44.965Z,70.76
2023-01-21T10:33:19.261Z,70.09
2023-01-21T10:36:14.698Z,70.72
2023-01-21T10:38:55.759Z,70.01
2023-01-21T10:41:52.580Z,69.83
2023-01-21T10:44:31.027Z,70.44
2023-01-21T10:47:08.355Z,69.76
2023-01-21T10:49:53.101Z,70.23
2023-01-21T10:52:30.257Z,70.74
2023-01-21T10:55:09.393Z,71.19
2023-01-21T10:57:52.413Z,69.81
2023-01-21T11:00:26.852Z,70.11
2023-01-21T11:03:02.375Z,71.42
2023-01-21T11:05:32.053Z,70.75
2023-01-21T11:08:03.290Z,71.52
2023-01-21T11:10:33.373Z,71.11
2023-01-21T11:13:04.083Z,72.51
2023-01-21T11:15:35.255Z,72.28
2023-01-21T11:18:30.120Z,72.92
2023-01-21T11:21:01.866Z,71.67
2023-01-21T11:23:34.855Z,72.15
2023-01-21T11:26:08.186Z,71.92
2023-01-21T11:28:40.140Z,71.32
2023-01-21T11:31:14.172Z,71.67
2023-01-21T11:33:44.755Z,71.20
2023-01-21T11:36:17.171Z,71.66
2023-01-21T11:38:47.930Z,71.85
2023-01-21T11:41:21.303Z,70.94
2023-01-21T11:43:54.240Z,71.48
2023-01-21T11:46:35.207Z,71.00
2023-01-21T11:49:29.975Z,70.93
2023-01-21T11:52:23.155Z,69.93
2023-01-21T11:54:52.481Z,71.07
2023-01-21T11:57:27.185Z,70.30
2023-01-21T12:00:05.317Z,69.94
2023-01-21T12:02:45.085Z,70.37
2023-01-21T12:05:18.132Z,70.31
2023-01-21T12:07:52.543Z,69.74
2023-01-21T12:10:31.779Z,69.63
2023-01-21T12:13:16.542Z,69.47
2023-01-21T12:16:22.834Z,69.79
2023-01-21T12:19:25.151Z,69.94
2023-01-21T12:22:20.554Z,69.46
2023-01-21T12:25:03.630Z,68.87
2023-01-21T12:27:41.893Z,69.76
2023-01-21T12:30:24.128Z,70.06
2023-01-21T12:32:59.997Z,69.30
2023-01-21T12:35:35.368Z,69.12
2023-01-21T12:38:09.019Z,68.76
2023-01-21T12:40:45.134Z,68.37
2023-01-21T12:43:19.990Z,68.48
2023-01-21T12:45:54.462Z,68.72
2023-01-21T12:48:31.300Z,68.28
2023-01-21T12:51:06.538Z,68.75
2023-01-21T12:53:41.823Z,69.58
2023-01-21T12:56:21.047Z,70.74
2023-01-21T12:58:56.347Z,73.71
2023-01-21T13:01:45.792Z,75.13
2023-01-21T13:04:38.609Z,76.79
2023-01-21T13:07:18.646Z,78.08
2023-01-21T13:09:55.750Z,79.15
2023-01-21T13:12:29.617Z,80.22
2023-01-21T13:15:04.092Z,80.12
2023-01-21T13:17:36.421Z,81.07
2023-01-21T13:20:17.798Z,80.76
2023-01-21T13:22:57.672Z,81.04
2023-01-21T13:25:34.732Z,81.62
2023-01-21T13:28:13.531Z,82.89
2023-01-21T13:30:47.603Z,83.83
2023-01-21T13:33:29.135Z,83.00
2023-01-21T13:36:17.478Z,83.22
2023-01-21T13:38:55.903Z,85.52
2023-01-21T13:41:47.387Z,84.44
2023-01-21T13:44:46.680Z,85.09
2023-01-21T13:47:31.473Z,86.36
2023-01-21T13:50:22.822Z,86.08
2023-01-21T13:53:10.932Z,85.94
2023-01-21T13:55:51.777Z,86.61
2023-01-21T13:58:34.184Z,86.48
2023-01-21T14:01:08.063Z,86.80
2023-01-21T14:03:43.184Z,86.80
2023-01-21T14:06:18.930Z,87.10
2023-01-21T14:08:54.097Z,87.67
2023-01-21T14:11:31.339Z,88.22
2023-01-21T14:14:36.255Z,86.97
2023-01-21T14:17:41.508Z,88.13
2023-01-21T14:20:55.546Z,88.10
2023-01-21T14:23:40.878Z,88.03
2023-01-21T14:26:32.127Z,87.71
2023-01-21T14:29:17.930Z,88.45
2023-01-21T14:31:52.293Z,87.50
2023-01-21T14:34:27.918Z,87.59
2023-01-21T14:37:05.637Z,88.40
2023-01-21T14:39:48.091Z,88.36
2023-01-21T14:42:25.131Z,88.83
2023-01-21T14:45:08.107Z,88.39
2023-01-21T14:47:48.669Z,88.25
2023-01-21T14:50:48.064Z,89.22
2023-01-21T14:53:24.584Z,89.12
2023-01-21T14:56:16.673Z,89.43
2023-01-21T14:58:53.535Z,89.99
2023-01-21T15:01:32.937Z,89.17
2023-01-21T15:04:07.844Z,89.86
2023-01-21T15:06:41.601Z,89.60
2023-01-21T15:09:22.970Z,89.45
2023-01-21T15:11:57.011Z,89.41
2023-01-21T15:14:31.182Z,89.34
2023-01-21T15:17:01.086Z,89.34
2023-01-21T15:19:33.224Z,89.64
2023-01-21T15:22:25.853Z,90.39
2023-01-21T15:25:20.563Z,89.33
2023-01-21T15:28:38.367Z,89.43
2023-01-21T15:31:11.222Z,89.23
2023-01-21T15:33:53.450Z,89.61
2023-01-21T15:36:26.541Z,90.00
2023-01-21T15:39:02.323Z,89.34
2023-01-21T15:41:38.511Z,89.97
2023-01-21T15:44:29.684Z,90.03
2023-01-21T15:47:08.859Z,89.62
2023-01-21T15:49:52.331Z,88.42
2023-01-21T15:52:37.642Z,89.05
2023-01-21T15:55:21.323Z,89.82
2023-01-21T15:57:55.579Z,89.12
2023-01-21T16:00:34.343Z,88.50
2023-01-21T16:03:25.704Z,88.70
2023-01-21T16:06:04.095Z,90.34
2023-01-21T16:08:50.620Z,89.13
2023-01-21T16:11:34.395Z,88.03
2023-01-21T16:14:19.815Z,87.85
2023-01-21T16:16:58.339Z,89.35
2023-01-21T16:19:34.923Z,87.75
2023-01-21T16:22:07.737Z,88.64
2023-01-21T16:24:42.647Z,88.10
2023-01-21T16:27:19.977Z,87.85
2023-01-21T16:29:49.307Z,88.43
2023-01-21T16:32:20.618Z,87.93
2023-01-21T16:34:51.567Z,87.46
2023-01-21T16:37:23.703Z,87.37
2023-01-21T16:39:56.009Z,88.31
2023-01-21T16:42:44.409Z,88.79
2023-01-21T16:45:20.011Z,87.59
2023-01-21T16:47:57.025Z,88.25
2023-01-21T16:50:30.126Z,87.71
2023-01-21T16:53:06.217Z,88.10
2023-01-21T16:55:35.156Z,88.65
2023-01-21T16:58:05.043Z,87.85
2023-01-21T17:00:35.128Z,89.30
2023-01-21T17:03:04.942Z,88.63
2023-01-21T17:05:38.245Z,89.26
2023-01-21T17:08:15.004Z,89.02
2023-01-21T17:11:01.349Z,89.09
2023-01-21T17:13:32.564Z,88.76
2023-01-21T17:16:04.354Z,89.34
2023-01-21T17:18:38.912Z,89.98
2023-01-21T17:21:13.074Z,88.57
2023-01-21T17:23:49.230Z,88.61
2023-01-21T17:26:21.588Z,89.17
2023-01-21T17:28:57.592Z,88.07
2023-01-21T17:31:28.522Z,88.13
2023-01-21T17:34:20.378Z,87.94
2023-01-21T17:36:52.825Z,87.11
2023-01-21T17:40:01.176Z,87.94
2023-01-21T17:42:40.965Z,87.83
2023-01-21T17:45:23.705Z,87.05
2023-01-21T17:48:08.742Z,87.06
2023-01-21T17:50:45.688Z,87.17
2023-01-21T17:53:23.366Z,87.08
2023-01-21T17:56:02.507Z,86.99
2023-01-21T17:58:52.403Z,85.80
2023-01-21T18:01:22.944Z,86.19
2023-01-21T18:03:52.488Z,86.64
2023-01-21T18:06:26.380Z,85.80
2023-01-21T18:08:58.972Z,85.12
2023-01-21T18:11:28.550Z,84.19
2023-01-21T18:13:58.100Z,84.00
2023-01-21T18:16:27.763Z,83.92
2023-01-21T18:18:57.333Z,84.32
2023-01-21T18:21:27.216Z,83.35
2023-01-21T18:23:58.206Z,83.16
2023-01-21T18:26:31.439Z,84.30
2023-01-21T18:29:00.738Z,85.68
2023-01-21T18:31:30.383Z,85.49
2023-01-21T18:34:00.069Z,85.91
2023-01-21T18:36:30.040Z,86.04
2023-01-21T18:39:01.002Z,85.27
2023-01-21T18:41:30.746Z,86.96
2023-01-21T18:43:59.967Z,85.61
2023-01-21T18:46:29.656Z,85.58
2023-01-21T18:48:59.136Z,85.85
2023-01-21T18:51:28.861Z,86.00
2023-01-21T18:53:59.652Z,85.24
2023-01-21T18:56:29.117Z,84.94
2023-01-21T18:58:58.376Z,84.77
2023-01-21T19:01:28.180Z,84.81
2023-01-21T19:03:57.561Z,84.95
2023-01-21T19:06:27.116Z,84.46
2023-01-21T19:08:56.313Z,84.10
2023-01-21T19:11:27.573Z,84.47
2023-01-21T19:13:56.995Z,84.18
2023-01-21T19:16:26.880Z,83.99
2023-01-21T19:18:56.230Z,84.66
2023-01-21T19:21:26.294Z,83.85
2023-01-21T19:23:55.674Z,83.48
2023-01-21T19:26:26.841Z,83.78
2023-01-21T19:28:56.077Z,83.62
2023-01-21T19:31:26.311Z,83.49
2023-01-21T19:33:56.591Z,83.40
2023-01-21T19:36:27.307Z,83.47
2023-01-21T19:38:58.207Z,83.00
2023-01-21T19:41:29.688Z,83.65
2023-01-21T19:43:59.113Z,82.93
2023-01-21T19:46:29.575Z,82.50
2023-01-21T19:48:59.465Z,82.57
2023-01-21T19:51:31.812Z,82.78
2023-01-21T19:54:02.426Z,83.68
2023-01-21T19:56:34.172Z,83.04
2023-01-21T19:59:04.383Z,82.86
2023-01-21T20:01:34.171Z,82.95
2023-01-21T20:04:03.465Z,83.18
2023-01-21T20:06:40.419Z,83.04
2023-01-21T20:09:17.656Z,82.58
2023-01-21T20:11:48.645Z,82.38
2023-01-21T20:14:18.044Z,82.34
2023-01-21T20:16:51.784Z,82.76
2023-01-21T20:19:22.752Z,82.96
2023-01-21T20:22:02.072Z,82.21
2023-01-21T20:24:34.132Z,82.04
2023-01-21T20:27:08.684Z,81.76
2023-01-21T20:29:49.205Z,82.90
2023-01-21T20:32:20.908Z,82.66
2023-01-21T20:34:50.121Z,82.88
2023-01-21T20:37:20.030Z,82.24
2023-01-21T20:39:49.399Z,82.20
2023-01-21T20:42:20.399Z,83.14
2023-01-21T20:44:49.723Z,83.02
2023-01-21T20:47:27.654Z,82.75
2023-01-21T20:50:18.099Z,82.83
2023-01-21T20:52:48.232Z,83.11
2023-01-21T20:55:21.131Z,83.11
2023-01-21T20:57:52.259Z,82.09
2023-01-21T21:00:24.138Z,82.25
2023-01-21T21:02:55.614Z,82.24
2023-01-21T21:05:27.638Z,82.79
2023-01-21T21:07:57.781Z,82.34
2023-01-21T21:10:30.295Z,82.78
2023-01-21T21:13:01.677Z,81.82
2023-01-21T21:15:32.513Z,81.97
2023-01-21T21:18:03.293Z,82.36
2023-01-21T21:20:34.470Z,82.04
2023-01-21T21:23:04.312Z,82.10
2023-01-21T21:25:37.872Z,82.25
2023-01-21T21:28:10.295Z,82.63
2023-01-21T21:30:39.749Z,81.83
2023-01-21T21:33:14.813Z,81.76
2023-01-21T21:35:44.837Z,82.17
2023-01-21T21:38:16.860Z,82.85
2023-01-21T21:40:47.923Z,81.76
2023-01-21T21:43:38.937Z,82.40
2023-01-21T21:46:26.559Z,82.22
2023-01-21T21:48:56.409Z,81.98
2023-01-21T21:51:25.858Z,82.11
2023-01-21T21:53:55.622Z,82.17
2023-01-21T21:56:25.636Z,81.65
2023-01-21T21:58:56.748Z,81.95
2023-01-21T22:01:30.381Z,81.69
2023-01-21T22:04:01.027Z,81.60
2023-01-21T22:06:31.114Z,81.89
2023-01-21T22:09:00.764Z,81.84
2023-01-21T22:11:30.727Z,82.32
2023-01-21T22:14:03.998Z,81.56
2023-01-21T22:16:34.066Z,81.88
2023-01-21T22:19:03.736Z,81.77
2023-01-21T22:21:35.564Z,81.81
2023-01-21T22:24:06.947Z,82.08
2023-01-21T22:26:37.491Z,82.01
2023-01-21T22:29:08.381Z,82.10
2023-01-21T22:31:37.716Z,81.75
2023-01-21T22:34:07.283Z,82.68
2023-01-21T22:36:36.518Z,82.09
2023-01-21T22:39:06.557Z,81.72
2023-01-21T22:41:35.745Z,81.32
2023-01-21T22:44:05.450Z,81.58
2023-01-21T22:46:36.096Z,81.46
2023-01-21T22:49:06.046Z,81.19
2023-01-21T22:51:35.431Z,80.64
2023-01-21T22:54:05.009Z,80.80
2023-01-21T22:56:51.068Z,80.79
2023-01-21T22:59:22.373Z,80.90
2023-01-21T23:01:53.202Z,80.68
2023-01-21T23:04:22.789Z,81.45
2023-01-21T23:06:54.997Z,81.71
2023-01-21T23:09:24.775Z,81.24
2023-01-21T23:11:53.986Z,80.43
2023-01-21T23:14:23.495Z,81.77
2023-01-21T23:16:55.293Z,81.36
2023-01-21T23:19:26.512Z,80.84
2023-01-21T23:21:55.682Z,80.72
2023-01-21T23:24:25.113Z,81.01
2023-01-21T23:26:54.396Z,81.75
2023-01-21T23:29:24.107Z,82.01
2023-01-21T23:31:54.799Z,81.81
2023-01-21T23:34:24.362Z,81.00
2023-01-21T23:36:53.701Z,81.45
2023-01-21T23:39:23.227Z,81.21
2023-01-21T23:41:52.378Z,80.91
2023-01-21T23:44:25.410Z,80.94
2023-01-21T23:46:56.150Z,81.50
2023-01-21T23:49:25.641Z,81.75
2023-01-21T23:51:54.865Z,81.84
2023-01-21T23:54:24.497Z,81.56
2023-01-21T23:56:53.877Z,82.06
2023-01-21T23:59:23.416Z,81.47
